Time;durP1;ratioP1;P1;durP2;ratioP2;P2;SDS_P1;SDS_P2;PMS_P1;PMS_P2;Temp;Humidity;BMP_temperature;BMP_pressure;BME280_temperature;BME280_humidity;BME280_pressure;Samples;Min_cycle;Max_cycle;Signal;HPM_P1;HPM_P2
2022/04/19 00:00:32;;;;;;;3.80;3.27;;;;;;;10.63;46.70;98523.25;7035620;28;20278;-82
2022/04/19 00:03:55;;;;;;;4.47;3.13;;;;;;;10.30;47.67;98527.09;7035902;28;20666;-82
2022/04/19 00:07:17;;;;;;;5.70;3.20;;;;;;;10.50;47.17;98519.81;7034995;28;20205;-82
2022/04/19 00:10:40;;;;;;;3.17;2.87;;;;;;;10.70;46.73;98531.34;7035517;28;20302;-82
2022/04/19 00:14:02;;;;;;;3.80;3.30;;;;;;;10.68;46.75;98519.94;7034749;28;20209;-80
2022/04/19 00:17:24;;;;;;;3.63;3.20;;;;;;;10.81;46.03;98518.00;7033028;28;20259;-79
2022/04/19 00:20:47;;;;;;;4.00;3.60;;;;;;;10.20;46.56;98476.31;7034538;28;20233;-80
2022/04/19 00:24:08;;;;;;;6.47;3.40;;;;;;;10.55;46.74;98512.72;7034677;28;20672;-80
2022/04/19 00:27:30;;;;;;;5.07;3.40;;;;;;;10.26;47.20;98501.59;7035891;28;20213;-80
2022/04/19 00:30:51;;;;;;;4.17;3.70;;;;;;;9.95;48.58;98509.47;7037320;28;20304;-80
2022/04/19 00:34:13;;;;;;;3.40;3.10;;;;;;;10.39;47.63;98498.88;7035367;28;20209;-80
2022/04/19 00:37:37;;;;;;;5.77;4.30;;;;;;;10.50;47.31;98487.47;7032886;28;20292;-80
2022/04/19 00:40:58;;;;;;;4.93;3.60;;;;;;;10.61;46.73;98501.09;7032781;28;20309;-80
2022/04/19 00:44:20;;;;;;;7.43;4.20;;;;;;;10.68;46.62;98484.91;7033366;28;20291;-80
2022/04/19 00:47:41;;;;;;;5.13;3.97;;;;;;;10.13;47.35;98453.13;7032607;28;20347;-80
2022/04/19 00:51:03;;;;;;;4.37;3.27;;;;;;;10.54;46.83;98480.59;7031708;28;20220;-80
2022/04/19 00:54:27;;;;;;;3.93;3.13;;;;;;;10.27;47.28;98492.50;7032741;28;20286;-80
2022/04/19 00:57:50;;;;;;;5.43;3.13;;;;;;;9.82;48.53;98466.41;7032763;28;20212;-80
2022/04/19 01:01:12;;;;;;;3.40;3.07;;;;;;;9.73;48.52;98481.09;7033409;28;20263;-80
2022/04/19 01:04:34;;;;;;;3.40;3.10;;;;;;;9.34;49.40;98455.00;7033217;28;20304;-80
2022/04/19 01:07:55;;;;;;;3.97;2.97;;;;;;;9.61;48.74;98466.63;7032222;28;20250;-80
2022/04/19 01:15:05;;;;;;;3.00;2.80;;;;;;;9.92;48.01;98461.44;6993955;28;20244;-80
2022/04/19 01:18:27;;;;;;;5.37;3.17;;;;;;;9.69;48.47;98471.81;7031620;28;20355;-80
2022/04/19 01:21:50;;;;;;;3.30;3.00;;;;;;;9.68;48.90;98444.06;7032553;28;20257;-80
2022/04/19 01:25:12;;;;;;;3.23;2.93;;;;;;;9.84;47.94;98457.09;7032128;28;20581;-80
2022/04/19 01:28:33;;;;;;;4.87;2.77;;;;;;;9.98;47.83;98434.47;7032188;28;20210;-80
2022/04/19 01:31:55;;;;;;;3.17;2.73;;;;;;;9.75;47.88;98427.91;7032687;28;20717;-80
2022/04/19 01:35:18;;;;;;;3.13;2.70;;;;;;;9.71;47.93;98435.56;7032885;28;20260;-80
2022/04/19 01:38:41;;;;;;;3.10;2.80;;;;;;;9.60;48.28;98448.81;7031132;28;20732;-79
2022/04/19 01:42:05;;;;;;;3.90;2.80;;;;;;;9.72;48.50;98439.06;7031956;28;20270;-80
2022/04/19 01:45:29;;;;;;;3.23;2.93;;;;;;;9.49;49.52;98449.44;7032351;28;20201;-80
2022/04/19 01:48:51;;;;;;;7.10;3.37;;;;;;;9.14;49.81;98432.66;7031106;28;20231;-80
2022/04/19 01:52:13;;;;;;;4.03;3.40;;;;;;;9.07;50.48;98453.34;7030929;28;20221;-80
2022/04/19 01:55:36;;;;;;;3.17;2.97;;;;;;;9.61;49.01;98450.47;7031304;28;20202;-80
2022/04/19 01:58:57;;;;;;;3.57;2.80;;;;;;;9.84;48.36;98435.56;7031384;28;20288;-80
2022/04/19 02:02:19;;;;;;;4.13;3.20;;;;;;;9.61;48.44;98428.94;7033901;28;20232;-79
2022/04/19 02:05:40;;;;;;;3.30;3.00;;;;;;;9.24;48.63;98408.88;7033085;28;20200;-80
2022/04/19 02:09:03;;;;;;;3.20;2.70;;;;;;;9.37;49.54;98432.25;7031008;28;20685;-80
2022/04/19 02:12:26;;;;;;;3.17;2.87;;;;;;;9.13;50.26;98432.84;7031059;28;20209;-80
2022/04/19 02:15:47;;;;;;;4.13;3.37;;;;;;;9.01;50.54;98428.31;7030327;28;20237;-80
2022/04/19 02:19:09;;;;;;;3.93;2.87;;;;;;;8.93;50.17;98432.00;7029929;28;20266;-80
2022/04/19 02:22:32;;;;;;;3.17;2.87;;;;;;;9.07;50.41;98432.88;7030881;28;20670;-80
2022/04/19 02:25:54;;;;;;;3.10;2.80;;;;;;;8.95;50.30;98421.88;7029800;28;20240;-80
2022/04/19 02:29:19;;;;;;;4.23;3.83;;;;;;;9.06;49.85;98432.03;7030675;28;20657;-80
2022/04/19 02:32:40;;;;;;;3.40;3.10;;;;;;;8.80;50.88;98442.72;7030777;28;20208;-80
2022/04/19 02:36:03;;;;;;;4.03;3.60;;;;;;;8.16;52.16;98433.34;7030991;28;20208;-80
2022/04/19 02:39:25;;;;;;;3.80;3.33;;;;;;;8.42;51.43;98408.50;7030399;28;20236;-80
2022/04/19 02:42:47;;;;;;;3.50;3.20;;;;;;;8.57;51.40;98434.19;7030423;28;20197;-80
2022/04/19 02:46:10;;;;;;;2.80;2.60;;;;;;;8.49;51.75;98430.84;7029723;28;20236;-80
2022/04/19 02:49:31;;;;;;;2.90;2.70;;;;;;;8.66;51.00;98411.44;7030788;28;20942;-80
2022/04/19 02:52:55;;;;;;;4.40;3.20;;;;;;;9.11;49.69;98430.34;7031407;28;20212;-80
2022/04/19 02:56:16;;;;;;;3.50;3.10;;;;;;;8.94;49.91;98414.84;7034642;28;20246;-80
2022/04/19 02:59:38;;;;;;;4.60;3.30;;;;;;;8.82;50.58;98432.59;7035157;28;20225;-80
2022/04/19 03:03:01;;;;;;;3.40;3.10;;;;;;;8.97;49.78;98416.28;7036457;28;20688;-80
2022/04/19 03:06:22;;;;;;;2.97;2.67;;;;;;;9.07;49.09;98407.63;7040695;28;20209;-80
2022/04/19 03:09:44;;;;;;;2.83;2.63;;;;;;;8.65;49.71;98411.66;7040727;28;20892;-81
2022/04/19 03:13:06;;;;;;;4.53;3.00;;;;;;;8.53;51.57;98414.09;7040097;28;20220;-80
2022/04/19 03:16:28;;;;;;;4.17;3.00;;;;;;;8.81;50.80;98413.97;7040617;28;20211;-80
2022/04/19 03:19:51;;;;;;;2.87;2.67;;;;;;;8.72;50.16;98397.22;7040466;28;20305;-80
2022/04/19 03:30:39;;;;;;;3.33;3.03;;;;;;;8.56;50.70;98402.97;7004027;28;20221;-80
2022/04/19 03:34:01;;;;;;;4.70;3.20;;;;;;;7.71;52.48;98382.91;7040576;28;20223;-80
2022/04/19 03:37:24;;;;;;;4.53;2.80;;;;;;;8.02;53.16;98391.34;7040349;28;20262;-80
2022/04/19 03:40:46;;;;;;;3.67;3.30;;;;;;;8.17;52.49;98401.94;7040347;28;20310;-80
2022/04/19 03:44:08;;;;;;;5.33;2.90;;;;;;;8.19;52.18;98400.72;7040635;28;20205;-80
2022/04/19 03:47:30;;;;;;;3.47;3.20;;;;;;;7.98;52.12;98387.41;7040522;28;20654;-80
2022/04/19 03:50:52;;;;;;;3.80;3.50;;;;;;;8.20;52.05;98404.28;7039405;28;20267;-80
2022/04/19 03:54:15;;;;;;;3.67;3.23;;;;;;;8.05;52.68;98411.59;7038698;28;20205;-80
2022/04/19 03:57:37;;;;;;;3.50;3.20;;;;;;;8.06;52.26;98414.06;7040882;28;20289;-81
2022/04/19 04:00:59;;;;;;;3.70;3.10;;;;;;;8.51;51.70;98426.09;7039476;28;20701;-80
2022/04/19 04:04:21;;;;;;;3.50;3.20;;;;;;;8.33;51.23;98410.53;7040574;28;20290;-80
2022/04/19 04:07:42;;;;;;;4.20;3.80;;;;;;;8.62;51.51;98434.41;7040595;28;20682;-80
2022/04/19 04:11:06;;;;;;;3.77;3.47;;;;;;;8.49;50.81;98415.53;7040267;28;20228;-80
2022/04/19 04:14:27;;;;;;;4.03;3.63;;;;;;;8.47;51.24;98420.28;7040925;28;20201;-80
2022/04/19 04:17:49;;;;;;;5.23;3.90;;;;;;;8.68;51.10;98409.41;7041133;28;20302;-80
2022/04/19 04:21:10;;;;;;;3.50;3.20;;;;;;;8.63;50.71;98402.97;7041318;28;20247;-80
2022/04/19 04:24:32;;;;;;;3.93;3.30;;;;;;;8.56;50.48;98392.22;7040715;28;20246;-80
2022/04/19 04:27:55;;;;;;;5.43;3.93;;;;;;;8.99;49.58;98399.72;7040741;28;20209;-80
2022/04/19 04:31:16;;;;;;;3.90;3.50;;;;;;;8.50;50.29;98387.66;7041108;28;20314;-81
2022/04/19 04:34:38;;;;;;;4.03;3.50;;;;;;;8.55;51.25;98420.09;7036785;28;20201;-78
2022/04/19 04:38:00;;;;;;;3.77;3.37;;;;;;;8.76;50.97;98424.50;7019798;28;20212;-78
2022/04/19 04:41:21;;;;;;;4.20;3.50;;;;;;;8.83;50.09;98422.69;7029437;28;20431;-78
2022/04/19 04:44:44;;;;;;;4.30;3.53;;;;;;;8.74;50.08;98413.13;7023196;28;20348;-78
2022/04/19 04:51:46;;;;;;;4.13;3.73;;;;;;;9.16;49.40;98414.44;7026266;28;20222;-79
2022/04/19 04:55:08;;;;;;;5.50;4.17;;;;;;;9.09;49.68;98424.38;7013533;28;20209;-80
2022/04/19 04:58:30;;;;;;;4.10;3.53;;;;;;;8.48;50.99;98432.69;7009850;28;20284;-80
2022/04/19 05:01:53;;;;;;;6.77;4.83;;;;;;;8.86;50.26;98420.41;7033954;28;20221;-79
2022/04/19 05:05:14;;;;;;;5.43;3.97;;;;;;;8.96;49.80;98410.06;7042631;28;20197;-81
2022/04/19 05:08:36;;;;;;;4.97;3.87;;;;;;;9.25;49.61;98428.53;7044398;28;20202;-81
2022/04/19 05:11:58;;;;;;;5.83;4.00;;;;;;;8.89;49.51;98403.88;7027281;28;20678;-81
2022/04/19 05:15:20;;;;;;;4.40;3.40;;;;;;;9.17;50.27;98426.84;7037610;28;20281;-81
2022/04/19 05:18:43;;;;;;;5.60;3.90;;;;;;;9.37;49.34;98434.94;7035122;28;20206;-81
2022/04/19 05:22:05;;;;;;;5.03;3.73;;;;;;;9.44;49.12;98385.47;7034985;28;20255;-81
2022/04/19 05:25:26;;;;;;;4.10;3.50;;;;;;;9.71;47.83;98416.72;7034655;28;20675;-81
2022/04/19 05:28:48;;;;;;;4.27;3.70;;;;;;;9.39;49.21;98416.75;7034941;28;20209;-81
2022/04/19 05:32:10;;;;;;;4.97;4.10;;;;;;;9.53;48.54;98364.56;7023833;28;20363;-82
2022/04/19 05:35:33;;;;;;;4.93;3.60;;;;;;;10.38;47.58;98395.66;7007650;28;20202;-81
2022/04/19 05:38:55;;;;;;;3.70;3.40;;;;;;;10.70;46.20;98399.22;7018861;28;20676;-82
2022/04/19 05:42:17;;;;;;;3.93;3.60;;;;;;;11.73;44.17;98391.41;7034987;28;20241;-82
2022/04/19 05:45:39;;;;;;;4.23;3.70;;;;;;;12.17;43.63;98412.78;7034332;28;20201;-82
2022/04/19 05:49:04;;;;;;;4.47;3.40;;;;;;;12.83;41.92;98425.28;7035137;28;20197;-81
2022/04/19 05:52:27;;;;;;;4.87;4.37;;;;;;;12.14;44.15;98424.88;7038336;28;20208;-82
2022/04/19 05:55:48;;;;;;;5.50;4.20;;;;;;;12.18;44.76;98420.69;7034493;28;20206;-83
2022/04/19 05:59:10;;;;;;;4.10;3.70;;;;;;;12.38;43.74;98418.56;7033995;28;20574;-81
2022/04/19 06:06:11;;;;;;;4.70;3.70;;;;;;;12.69;44.21;98409.47;7035172;28;20197;-81
2022/04/19 06:09:34;;;;;;;4.33;3.70;;;;;;;12.79;43.79;98398.91;7036187;28;20258;-82
2022/04/19 06:12:56;;;;;;;4.87;3.50;;;;;;;12.68;43.51;98407.81;7036285;28;20210;-84
2022/04/19 06:16:17;;;;;;;4.07;3.60;;;;;;;12.57;43.71;98422.09;7035878;28;20210;-81
2022/04/19 06:19:39;;;;;;;6.70;3.60;;;;;;;12.99;43.45;98403.03;7037289;28;20282;-81
2022/04/19 06:23:01;;;;;;;4.20;3.87;;;;;;;13.37;42.44;98414.34;7024350;28;20234;-86
2022/04/19 06:26:24;;;;;;;5.20;3.43;;;;;;;14.69;41.32;98395.44;7035555;28;20224;-82
2022/04/19 06:29:45;;;;;;;5.23;3.67;;;;;;;15.52;38.92;98410.88;7032994;28;20428;-81
2022/04/19 06:33:07;;;;;;;4.57;3.50;;;;;;;14.61;39.83;98417.50;7034088;28;20251;-81
2022/04/19 06:36:28;;;;;;;4.03;3.63;;;;;;;14.22;40.32;98389.28;7034429;28;20267;-81
2022/04/19 06:39:50;;;;;;;6.33;4.20;;;;;;;14.23;40.76;98390.13;7034532;28;20231;-82
2022/04/19 06:43:13;;;;;;;4.90;4.00;;;;;;;14.33;40.74;98388.44;7034563;28;20207;-81
2022/04/19 06:46:36;;;;;;;5.50;4.03;;;;;;;14.86;39.51;98390.91;7033755;28;20657;-81
2022/04/19 06:49:58;;;;;;;6.27;3.87;;;;;;;14.68;39.96;98401.94;7027714;28;20221;-81
2022/04/19 06:53:20;;;;;;;5.93;4.00;;;;;;;15.20;39.55;98400.75;7022239;28;20231;-81
2022/04/19 06:56:42;;;;;;;6.27;4.00;;;;;;;14.85;39.81;98397.38;7018943;28;20190;-81
2022/04/19 07:00:07;;;;;;;4.37;3.60;;;;;;;15.57;38.97;98405.53;7012778;28;20253;-81
2022/04/19 07:03:28;;;;;;;5.97;4.73;;;;;;;16.46;37.16;98409.91;7006197;28;20206;-79
2022/04/19 07:06:50;;;;;;;3.83;3.43;;;;;;;16.15;37.41;98400.47;7007551;28;20235;-80
2022/04/19 07:10:12;;;;;;;5.67;3.83;;;;;;;15.76;38.69;98403.41;7010697;28;20468;-81
2022/04/19 07:13:34;;;;;;;5.33;3.83;;;;;;;15.98;38.07;98396.94;7010588;28;20194;-81
2022/04/19 07:16:58;;;;;;;5.10;3.73;;;;;;;16.56;36.95;98380.91;7015354;28;20582;-81
2022/04/19 07:27:38;;;;;;;4.53;3.50;;;;;;;16.92;35.40;98390.34;7031841;28;20201;-81
2022/04/19 07:31:00;;;;;;;4.07;3.67;;;;;;;16.78;34.85;98380.91;7031291;28;20603;-80
2022/04/19 07:34:24;;;;;;;3.40;3.10;;;;;;;16.84;35.64;98401.66;7031484;28;20202;-81
2022/04/19 07:37:46;;;;;;;3.60;3.30;;;;;;;17.38;34.74;98374.22;7031852;28;20219;-80
2022/04/19 07:41:08;;;;;;;5.87;3.90;;;;;;;18.13;34.27;98393.06;7031187;28;20225;-80
2022/04/19 07:44:31;;;;;;;5.87;3.80;;;;;;;18.92;31.90;98389.16;7031054;28;20241;-80
2022/04/19 07:47:52;;;;;;;4.63;3.90;;;;;;;18.76;31.59;98384.72;7012284;28;20575;-81
2022/04/19 07:51:16;;;;;;;5.07;3.53;;;;;;;18.80;32.13;98386.63;7007316;28;20234;-81
2022/04/19 07:54:37;;;;;;;6.20;3.63;;;;;;;18.00;33.32;98383.47;7033122;28;20202;-81
2022/04/19 07:57:59;;;;;;;3.70;3.40;;;;;;;18.82;32.44;98361.78;7036606;28;20205;-83
2022/04/19 08:01:20;;;;;;;171.07;53.77;;;;;;;19.00;31.54;98385.88;7037095;28;20252;-82
2022/04/19 08:04:42;;;;;;;6.57;4.67;;;;;;;19.96;30.90;98363.84;7037049;28;20209;-82
2022/04/19 08:08:06;;;;;;;4.07;3.50;;;;;;;20.00;30.16;98370.44;7036261;28;20206;-81
2022/04/19 08:11:28;;;;;;;4.37;3.70;;;;;;;19.72;30.39;98367.41;7037172;28;20226;-81
2022/04/19 08:14:49;;;;;;;4.30;3.90;;;;;;;20.63;28.87;98371.66;7037077;28;20307;-82
2022/04/19 08:18:13;;;;;;;5.63;3.93;;;;;;;20.89;27.82;98373.22;7036785;28;20239;-81
2022/04/19 08:21:35;;;;;;;7.80;4.20;;;;;;;21.17;26.68;98364.28;7036506;28;20258;-81
2022/04/19 08:24:59;;;;;;;5.70;4.43;;;;;;;20.18;28.37;98349.88;7036568;28;20343;-81
2022/04/19 08:28:21;;;;;;;4.80;3.90;;;;;;;21.30;27.55;98359.00;7036264;28;20264;-81
2022/04/19 08:31:43;;;;;;;6.03;4.10;;;;;;;22.23;24.78;98347.50;7036682;28;20225;-82
2022/04/19 08:35:05;;;;;;;5.97;4.47;;;;;;;21.66;25.42;98352.94;7037217;28;20201;-81
2022/04/19 08:38:27;;;;;;;4.30;3.90;;;;;;;21.78;25.77;98338.91;7036432;28;20198;-81
2022/04/19 08:41:50;;;;;;;4.43;3.93;;;;;;;21.92;25.73;98346.19;7035839;28;20233;-81
2022/04/19 08:45:13;;;;;;;5.23;3.90;;;;;;;21.33;26.82;98338.41;7027744;28;20208;-81
2022/04/19 08:48:38;;;;;;;4.73;4.23;;;;;;;21.63;26.33;98352.72;7020913;28;20190;-82
2022/04/19 08:52:00;;;;;;;4.40;4.00;;;;;;;21.90;26.25;98342.88;7020704;28;20306;-80
2022/04/19 08:59:04;;;;;;;6.37;4.60;;;;;;;22.12;26.65;98345.97;7007628;28;20631;-80
2022/04/19 09:02:27;;;;;;;6.90;4.20;;;;;;;22.04;25.99;98340.28;7006604;28;20218;-81
2022/04/19 09:05:53;;;;;;;6.23;4.17;;;;;;;22.47;26.25;98336.53;7005921;28;20211;-80
2022/04/19 09:09:14;;;;;;;6.50;4.33;;;;;;;22.19;25.65;98309.94;7006847;28;20663;-80
2022/04/19 09:12:36;;;;;;;5.33;4.67;;;;;;;22.51;25.78;98341.19;7006024;28;20212;-80
2022/04/19 09:16:03;;;;;;;6.37;3.87;;;;;;;23.29;24.69;98325.00;7005800;28;21011;-80
2022/04/19 09:19:28;;;;;;;4.97;3.87;;;;;;;23.37;24.22;98333.41;7024371;28;20247;-80
2022/04/19 09:23:02;;;;;;;5.33;4.40;;;;;;;23.37;24.65;98318.84;7028573;28;20376;-80
2022/04/19 09:26:23;;;;;;;7.10;4.37;;;;;;;22.73;23.91;98302.16;7006639;28;20210;-81
2022/04/19 09:29:45;;;;;;;7.07;4.33;;;;;;;22.60;24.97;98325.66;7007133;28;20225;-81
2022/04/19 09:33:10;;;;;;;10.03;4.80;;;;;;;22.64;24.86;98315.72;7028655;28;20218;-81
2022/04/19 09:36:31;;;;;;;7.13;4.40;;;;;;;22.50;25.06;98320.31;7034712;28;20203;-81
2022/04/19 09:39:54;;;;;;;4.73;3.83;;;;;;;22.85;24.62;98310.78;7033645;28;20220;-81
2022/04/19 09:43:20;;;;;;;4.87;4.00;;;;;;;22.70;23.68;98313.72;7033807;28;20257;-80
2022/04/19 09:47:01;;;;;;;5.40;3.37;;;;;;;22.74;23.09;98306.53;7006986;28;20194;-80
2022/04/19 09:50:24;;;;;;;3.60;3.30;;;;;;;23.39;21.34;98300.94;7026497;28;20231;-79
2022/04/19 09:53:47;;;;;;;6.60;3.40;;;;;;;23.99;20.20;98293.56;7035780;28;20224;-82
2022/04/19 09:57:09;;;;;;;3.50;3.20;;;;;;;24.22;21.47;98304.44;7039409;28;20266;-81
2022/04/19 10:00:31;;;;;;;3.83;3.33;;;;;;;24.87;19.15;98288.50;7028262;28;20226;-79
2022/04/19 10:11:14;;;;;;;5.17;3.43;;;;;;;24.64;20.32;98297.81;7013823;28;20216;-80
2022/04/19 10:14:36;;;;;;;3.73;3.33;;;;;;;24.62;19.86;98278.84;7019132;28;20197;-76
2022/04/19 10:17:57;;;;;;;4.47;3.50;;;;;;;23.82;20.67;98272.09;7017504;28;20301;-78
2022/04/19 10:21:21;;;;;;;4.50;3.90;;;;;;;23.31;21.52;98289.78;7019845;28;20577;-79
2022/04/19 10:24:52;;;;;;;3.77;3.40;;;;;;;23.53;22.26;98279.78;7031370;28;20203;-80
2022/04/19 10:28:15;;;;;;;5.10;3.87;;;;;;;22.96;23.01;98287.53;7032970;28;20208;-79
2022/04/19 10:31:37;;;;;;;4.33;3.60;;;;;;;22.34;24.56;98288.59;7031531;28;20221;-80
2022/04/19 10:35:03;;;;;;;3.93;3.50;;;;;;;23.24;22.21;98281.91;7036150;28;20201;-80
2022/04/19 10:38:25;;;;;;;4.90;3.50;;;;;;;23.32;22.73;98266.66;7027255;28;20873;-79
2022/04/19 10:41:51;;;;;;;6.27;3.67;;;;;;;23.13;22.50;98241.88;7019866;28;20240;-79
2022/04/19 10:45:20;;;;;;;4.53;3.37;;;;;;;24.08;22.24;98266.97;7022076;28;20685;-80
2022/04/19 10:49:15;;;;;;;4.10;3.70;;;;;;;23.72;22.09;98266.78;7030596;28;20201;-80
2022/04/19 10:52:50;;;;;;;4.20;3.80;;;;;;;23.16;22.49;98243.22;7024748;28;20234;-80
2022/04/19 10:56:11;;;;;;;4.00;3.40;;;;;;;24.27;21.64;98257.50;7031624;28;20205;-80
2022/04/19 10:59:36;;;;;;;4.50;3.87;;;;;;;24.19;21.06;98257.41;7031854;28;20247;-79
2022/04/19 11:03:00;;;;;;;6.03;4.03;;;;;;;23.24;22.39;98262.66;7030153;28;20314;-79
2022/04/19 11:06:38;;;;;;;3.43;3.13;;;;;;;24.65;21.38;98247.88;7029484;28;20197;-77
2022/04/19 11:10:03;;;;;;;3.73;3.27;;;;;;;23.06;21.69;98248.91;7030874;28;20684;-81
2022/04/19 11:13:27;;;;;;;6.87;3.97;;;;;;;22.67;22.19;98243.66;7031396;28;20239;-81
2022/04/19 11:16:51;;;;;;;4.53;3.40;;;;;;;24.92;20.93;98227.72;7030444;28;20212;-81
2022/04/19 11:20:15;;;;;;;4.63;4.13;;;;;;;24.53;21.46;98230.19;7030936;28;20222;-81
2022/04/19 11:23:42;;;;;;;4.40;4.00;;;;;;;23.47;21.58;98222.38;7030852;28;20225;-79
2022/04/19 11:27:04;;;;;;;4.80;4.30;;;;;;;22.93;22.85;98219.38;7021744;28;20247;-78
2022/04/19 11:30:26;;;;;;;4.47;4.07;;;;;;;22.61;22.45;98227.56;7034979;28;20218;-78
2022/04/19 11:33:49;;;;;;;5.27;4.53;;;;;;;22.10;23.11;98232.88;7035591;28;20208;-78
2022/04/19 11:37:11;;;;;;;7.87;4.47;;;;;;;23.12;21.93;98204.50;7034964;28;20204;-77
2022/04/19 11:47:58;;;;;;;4.93;4.33;;;;;;;24.13;20.46;98200.78;7016961;28;20205;-77
2022/04/19 11:51:22;;;;;;;5.50;4.60;;;;;;;22.65;21.47;98210.19;7007110;28;20224;-77
2022/04/19 11:54:43;;;;;;;4.70;4.20;;;;;;;22.93;21.50;98187.22;7008063;28;20205;-80
2022/04/19 11:58:06;;;;;;;5.43;4.27;;;;;;;23.04;22.08;98191.44;7008271;28;20610;-79
2022/04/19 12:01:28;;;;;;;6.00;4.33;;;;;;;23.31;21.67;98199.00;7007430;28;20380;-79
2022/04/19 12:04:52;;;;;;;6.17;4.10;;;;;;;23.61;20.60;98207.50;7007123;28;20580;-79
2022/04/19 12:08:29;;;;;;;5.00;4.50;;;;;;;23.90;21.14;98193.53;7007831;28;20242;-79
2022/04/19 12:11:51;;;;;;;6.33;4.60;;;;;;;24.53;20.03;98186.09;7007309;28;20221;-76
2022/04/19 12:15:13;;;;;;;6.90;5.07;;;;;;;24.56;20.03;98167.03;7017349;28;20200;-77
2022/04/19 12:18:36;;;;;;;4.30;3.90;;;;;;;24.68;20.09;98175.59;7034677;28;20212;-77
2022/04/19 12:21:58;;;;;;;4.67;4.07;;;;;;;23.84;20.76;98184.50;7034097;28;20236;-77
2022/04/19 12:25:24;;;;;;;5.80;4.80;;;;;;;23.57;21.23;98173.47;7035069;28;20235;-77
2022/04/19 12:28:47;;;;;;;5.20;4.70;;;;;;;24.67;20.18;98173.94;7034440;28;20204;-78
2022/04/19 12:32:08;;;;;;;4.87;4.33;;;;;;;24.66;20.17;98177.84;7034072;28;20236;-78
2022/04/19 12:35:33;;;;;;;6.33;4.77;;;;;;;23.25;21.20;98169.94;7033616;28;20201;-78
2022/04/19 12:38:59;;;;;;;5.57;4.13;;;;;;;23.82;21.86;98156.47;7033497;28;20202;-77
2022/04/19 12:42:22;;;;;;;6.20;4.73;;;;;;;24.21;21.17;98165.06;7033929;28;20235;-77
2022/04/19 12:45:45;;;;;;;5.40;4.13;;;;;;;24.46;20.37;98156.22;7033979;28;20246;-77
2022/04/19 12:49:07;;;;;;;5.20;4.13;;;;;;;24.26;20.68;98158.63;7016028;28;20212;-78
2022/04/19 12:52:32;;;;;;;3.97;3.57;;;;;;;23.64;21.63;98160.13;7033977;28;20287;-78
2022/04/19 12:56:40;;;;;;;4.47;3.73;;;;;;;23.00;21.44;98162.91;7033793;28;20579;-77
2022/04/19 13:00:04;;;;;;;3.73;3.43;;;;;;;24.23;20.17;98157.28;7033669;28;20284;-77
2022/04/19 13:03:25;;;;;;;5.17;3.70;;;;;;;24.08;20.61;98154.84;7033166;28;20232;-78
2022/04/19 13:14:05;;;;;;;4.23;3.40;;;;;;;23.80;20.80;98146.88;7033407;28;20200;-77
2022/04/19 13:17:31;;;;;;;4.77;3.57;;;;;;;23.13;21.85;98139.31;7032027;28;20254;-78
2022/04/19 13:20:52;;;;;;;4.30;3.47;;;;;;;23.48;21.18;98144.22;7016147;28;20362;-78
2022/04/19 13:24:14;;;;;;;4.73;3.70;;;;;;;23.81;21.04;98138.31;7004997;28;20594;-77
2022/04/19 13:27:36;;;;;;;4.50;3.40;;;;;;;23.41;21.06;98121.75;7004428;28;20300;-78
2022/04/19 13:30:58;;;;;;;4.03;3.23;;;;;;;24.15;20.82;98133.22;7005088;28;20784;-78
2022/04/19 13:34:21;;;;;;;4.73;3.27;;;;;;;23.55;21.29;98137.16;7004199;28;20220;-78
2022/04/19 13:41:22;;;;;;;3.13;2.83;;;;;;;24.09;20.82;98117.94;7004899;28;20695;-78
2022/04/19 13:44:43;;;;;;;3.73;3.40;;;;;;;22.68;21.24;98129.91;7005746;28;20207;-78
2022/04/19 13:48:06;;;;;;;3.67;2.93;;;;;;;23.11;20.74;98117.63;7003717;28;20216;-78
2022/04/19 13:51:28;;;;;;;2.83;2.53;;;;;;;23.09;20.83;98127.28;7004596;28;20321;-77
2022/04/19 13:54:50;;;;;;;3.80;3.30;;;;;;;22.82;21.17;98122.53;7005022;28;20199;-78
2022/04/19 13:58:12;;;;;;;3.60;3.23;;;;;;;23.33;21.13;98126.06;7003384;28;20206;-78
2022/04/19 14:01:34;;;;;;;4.30;3.00;;;;;;;23.26;20.30;98131.13;7004334;28;20316;-78
2022/04/19 14:04:55;;;;;;;3.17;2.87;;;;;;;23.41;20.16;98133.59;7004019;28;20573;-78
2022/04/19 14:08:18;;;;;;;6.50;3.20;;;;;;;23.20;20.22;98104.81;7003124;28;20743;-78
2022/04/19 14:11:40;;;;;;;3.00;2.70;;;;;;;24.15;20.02;98115.88;7004357;28;20231;-78
2022/04/19 14:15:01;;;;;;;3.03;2.80;;;;;;;24.17;20.19;98121.88;7004471;28;20660;-78
2022/04/19 14:18:23;;;;;;;3.40;2.73;;;;;;;23.66;19.80;98111.09;7004341;28;20234;-78
2022/04/19 14:21:45;;;;;;;5.10;2.83;;;;;;;23.56;20.03;98115.97;7004265;28;20230;-78
2022/04/19 14:25:08;;;;;;;3.63;2.53;;;;;;;23.35;20.72;98123.81;7004910;28;20199;-78
2022/04/19 14:35:49;;;;;;;3.37;2.60;;;;;;;23.62;19.85;98125.78;7004909;28;20206;-78
2022/04/19 14:39:11;;;;;;;3.03;2.17;;;;;;;23.82;19.89;98126.19;7004480;28;20211;-78
2022/04/19 14:42:34;;;;;;;5.67;3.00;;;;;;;23.50;19.76;98114.44;7013746;28;20227;-77
2022/04/19 14:45:57;;;;;;;3.87;2.80;;;;;;;23.59;20.43;98115.38;7004086;28;20575;-78
2022/04/19 14:49:18;;;;;;;3.13;2.70;;;;;;;24.01;20.02;98112.34;7005470;28;20569;-78
2022/04/19 14:52:40;;;;;;;3.40;2.40;;;;;;;24.23;19.98;98102.19;7010066;28;20209;-77
2022/04/19 14:56:02;;;;;;;3.57;2.70;;;;;;;23.99;20.20;98107.13;7009749;28;20204;-78
2022/04/19 14:59:25;;;;;;;3.10;2.47;;;;;;;23.84;19.73;98093.63;7008618;28;20200;-77
2022/04/19 15:02:46;;;;;;;3.47;2.70;;;;;;;23.94;19.63;98093.47;7004275;28;20229;-77
2022/04/19 15:06:08;;;;;;;4.93;2.30;;;;;;;23.99;19.35;98109.88;7003650;28;20207;-77
2022/04/19 15:09:29;;;;;;;2.50;2.30;;;;;;;23.13;20.15;98109.88;7003245;28;20838;-77
2022/04/19 15:12:53;;;;;;;3.77;2.33;;;;;;;23.19;20.35;98110.66;7014407;28;20538;-78
2022/04/19 15:16:16;;;;;;;2.80;1.83;;;;;;;22.59;20.31;98115.19;7030527;28;20206;-78
2022/04/19 15:19:37;;;;;;;2.70;2.00;;;;;;;23.16;19.98;98097.44;7024499;28;20234;-77
2022/04/19 15:22:59;;;;;;;3.07;1.90;;;;;;;23.55;20.04;98109.66;7020834;28;20221;-77
2022/04/19 15:26:20;;;;;;;2.10;1.90;;;;;;;22.99;19.91;98106.28;7017773;28;20371;-77
2022/04/19 15:29:42;;;;;;;2.10;1.90;;;;;;;22.88;20.69;98099.31;7023994;28;20602;-77
2022/04/19 15:33:05;;;;;;;3.83;2.27;;;;;;;22.96;20.13;98089.56;7031057;28;20679;-77
2022/04/19 15:36:27;;;;;;;5.20;2.50;;;;;;;23.04;20.38;98110.88;7024651;28;20204;-77
2022/04/19 15:39:49;;;;;;;4.83;2.80;;;;;;;22.92;20.70;98116.03;7014852;28;20652;-77
2022/04/19 15:43:10;;;;;;;3.13;2.53;;;;;;;23.66;20.10;98111.09;7014899;28;20303;-78
2022/04/19 15:46:32;;;;;;;3.30;2.47;;;;;;;23.24;20.43;98110.56;7017458;28;20202;-78
2022/04/19 15:49:55;;;;;;;3.00;2.37;;;;;;;22.97;21.12;98100.28;7003515;28;20226;-78
2022/04/19 15:53:16;;;;;;;2.60;2.40;;;;;;;21.59;22.37;98118.47;7002995;28;20662;-77
2022/04/19 15:56:38;;;;;;;3.10;2.20;;;;;;;22.95;21.26;98109.94;7026462;28;20214;-77
2022/04/19 15:59:59;;;;;;;2.63;2.17;;;;;;;22.78;21.57;98107.72;7030564;28;20237;-77
2022/04/19 16:03:23;;;;;;;3.30;2.10;;;;;;;22.72;21.17;98111.69;7030049;28;20315;-78
2022/04/19 16:06:46;;;;;;;3.73;2.53;;;;;;;22.46;22.07;98107.72;7020795;28;20699;-77
2022/04/19 16:10:08;;;;;;;3.10;2.30;;;;;;;22.89;21.28;98100.16;7031979;28;20256;-77
2022/04/19 16:13:29;;;;;;;2.53;2.20;;;;;;;22.58;21.55;98101.75;7019152;28;20203;-77
2022/04/19 16:24:13;;;;;;;9.73;3.10;;;;;;;23.19;20.52;98107.91;7006096;28;20232;-78
2022/04/19 16:27:34;;;;;;;2.33;2.13;;;;;;;22.84;20.82;98103.78;7006017;28;20220;-79
2022/04/19 16:30:57;;;;;;;2.77;2.20;;;;;;;22.46;21.27;98102.22;7007472;28;20221;-79
2022/04/19 16:34:19;;;;;;;4.23;2.40;;;;;;;22.04;21.38;98109.66;7006783;28;20202;-79
2022/04/19 16:37:41;;;;;;;5.50;2.57;;;;;;;22.55;21.05;98100.41;7007713;28;20356;-79
2022/04/19 16:41:04;;;;;;;2.40;2.20;;;;;;;22.59;20.51;98104.19;7006949;28;20291;-79
2022/04/19 16:44:26;;;;;;;2.30;2.10;;;;;;;22.80;20.30;98105.53;7009591;28;21578;-79
2022/04/19 16:47:47;;;;;;;2.37;2.10;;;;;;;22.54;20.83;98111.72;7034463;28;20218;-79
2022/04/19 16:51:09;;;;;;;3.63;2.00;;;;;;;22.39;20.69;98103.66;7034870;28;20323;-78
2022/04/19 16:54:32;;;;;;;2.50;2.30;;;;;;;21.87;20.93;98109.34;7035224;28;20210;-79
2022/04/19 16:57:57;;;;;;;2.30;2.10;;;;;;;22.36;21.18;98107.03;7033474;28;20198;-79
2022/04/19 17:01:18;;;;;;;3.27;2.10;;;;;;;22.13;20.75;98096.91;7034194;28;20249;-79
2022/04/19 17:04:40;;;;;;;2.83;2.27;;;;;;;21.82;21.50;98101.16;7034955;28;20317;-79
2022/04/19 17:08:01;;;;;;;4.63;2.47;;;;;;;23.78;19.62;98099.56;7033308;28;20208;-79